Time;durP1;ratioP1;P1;durP2;ratioP2;P2;SDS_P1;SDS_P2;PMS_P1;PMS_P2;Temp;Humidity;BMP_temperature;BMP_pressure;BME280_temperature;BME280_humidity;BME280_pressure;Samples;Min_cycle;Max_cycle;Signal;HPM_P1;HPM_P2
2023/09/10 00:08:26;;;;;;;;;;;;;;;21.52;94.75684;101833;;;;-81
2023/09/10 00:13:29;;;;;;;;;;;;;;;21.46;93.2207;101838.8;;;;-80
2023/09/10 00:16:41;;;;;;;31.7;24.3;;;;;;;;;;;;;-81
2023/09/10 00:23:29;;;;;;;;;;;;;;;21.41;94.91406;101841.2;;;;-82
2023/09/10 00:28:19;;;;;;;;;;;;;;;21.34;92.29199;101842.6;;;;-81
2023/09/10 00:33:24;;;;;;;;;;;;;;;21.33;89.82422;101843;;;;-81
2023/09/10 00:38:25;;;;;;;;;;;;;;;21.32;95.23438;101839.4;;;;-81
2023/09/10 00:43:21;;;;;;;;;;;;;;;21.27;96.49707;101841.9;;;;-81
2023/09/10 00:46:44;;;;;;;30.1;23.9;;;;;;;;;;;;;-82
2023/09/10 00:48:19;;;;;;;;;;;;;;;21.17;96.66797;101836.9;;;;-82
2023/09/10 00:58:24;;;;;;;;;;;;;;;21.08;89.0498;101833.6;;;;-80
2023/09/10 01:03:24;;;;;;;;;;;;;;;21.14;97.97168;101829;;;;-81
2023/09/10 01:08:23;;;;;;;;;;;;;;;21.1;99.43652;101830.7;;;;-80
2023/09/10 01:13:29;;;;;;;;;;;;;;;21.04;100;101829.8;;;;-79
2023/09/10 01:16:46;;;;;;;43.6;31.7;;;;;;;;;;;;;-82
2023/09/10 01:18:29;;;;;;;;;;;;;;;20.98;100;101827.3;;;;-80
2023/09/10 01:23:23;;;;;;;;;;;;;;;20.93;98.7373;101827.4;;;;-80
2023/09/10 01:28:18;;;;;;;;;;;;;;;20.99;100;101825;;;;-82
2023/09/10 01:33:26;;;;;;;;;;;;;;;20.98;100;101825.3;;;;-82
2023/09/10 01:38:21;;;;;;;;;;;;;;;20.94;100;101827.2;;;;-80
2023/09/10 01:43:49;;;;;;;;;;;;;;;20.9;98.16699;101828.3;;;;-81
2023/09/10 01:46:59;;;;;;;34.1;26.3;;;;;;;;;;;;;-82
2023/09/10 01:48:19;;;;;;;;;;;;;;;20.91;100;101820.9;;;;-81
2023/09/10 01:53:30;;;;;;;;;;;;;;;20.89;100;101832.3;;;;-79
2023/09/10 01:58:25;;;;;;;;;;;;;;;20.89;95.96484;101829.1;;;;-83
2023/09/10 02:03:21;;;;;;;;;;;;;;;20.87;99.82813;101827;;;;-78
2023/09/10 02:08:28;;;;;;;;;;;;;;;20.82;100;101821.9;;;;-80
2023/09/10 02:13:20;;;;;;;;;;;;;;;20.8;100;101823.1;;;;-79
2023/09/10 02:16:48;;;;;;;45.7;33.7;;;;;;;;;;;;;-79
2023/09/10 02:18:19;;;;;;;;;;;;;;;20.8;100;101821.1;;;;-81
2023/09/10 02:23:29;;;;;;;;;;;;;;;20.8;100;101821.9;;;;-80
2023/09/10 02:28:27;;;;;;;;;;;;;;;20.78;100;101827.1;;;;-81
2023/09/10 02:33:23;;;;;;;;;;;;;;;20.74;100;101822.4;;;;-81
2023/09/10 02:38:21;;;;;;;;;;;;;;;20.77;100;101827.3;;;;-80
2023/09/10 02:43:19;;;;;;;;;;;;;;;20.76;100;101827.9;;;;-80
2023/09/10 02:46:54;;;;;;;41.8;32.6;;;;;;;;;;;;;-79
2023/09/10 02:48:29;;;;;;;;;;;;;;;20.74;100;101825.4;;;;-80
2023/09/10 02:53:19;;;;;;;;;;;;;;;20.74;100;101820.9;;;;-82
2023/09/10 02:58:19;;;;;;;;;;;;;;;20.72;100;101821.8;;;;-80
2023/09/10 03:03:21;;;;;;;;;;;;;;;20.71;100;101818;;;;-81
2023/09/10 03:08:21;;;;;;;;;;;;;;;20.64;100;101821.9;;;;-81
2023/09/10 03:13:28;;;;;;;;;;;;;;;20.63;100;101818.4;;;;-81
2023/09/10 03:17:10;;;;;;;45.8;31.8;;;;;;;;;;;;;-80
2023/09/10 03:18:19;;;;;;;;;;;;;;;20.6;100;101813.6;;;;-80
2023/09/10 03:23:27;;;;;;;;;;;;;;;20.58;100;101811;;;;-80
2023/09/10 03:28:19;;;;;;;;;;;;;;;20.54;100;101812.9;;;;-81
2023/09/10 03:33:24;;;;;;;;;;;;;;;20.49;100;101810.6;;;;-79
2023/09/10 03:38:21;;;;;;;;;;;;;;;20.44;100;101812.2;;;;-82
2023/09/10 03:43:21;;;;;;;;;;;;;;;20.38;100;101812.3;;;;-80
2023/09/10 03:46:58;;;;;;;41.4;31.6;;;;;;;;;;;;;-80
2023/09/10 03:48:30;;;;;;;;;;;;;;;20.37;100;101803.7;;;;-80
2023/09/10 03:53:19;;;;;;;;;;;;;;;20.3;100;101798.2;;;;-80
2023/09/10 03:58:24;;;;;;;;;;;;;;;20.26;100;101807.5;;;;-82
2023/09/10 04:03:20;;;;;;;;;;;;;;;20.22;100;101807.5;;;;-81
2023/09/10 04:08:22;;;;;;;;;;;;;;;20.2;100;101808.3;;;;-81
2023/09/10 04:13:22;;;;;;;;;;;;;;;20.13;100;101801.5;;;;-81
2023/09/10 04:17:09;;;;;;;48.4;35.4;;;;;;;;;;;;;-81
2023/09/10 04:18:24;;;;;;;;;;;;;;;20.13;100;101802.1;;;;-80
2023/09/10 04:23:18;;;;;;;;;;;;;;;20.13;100;101802.7;;;;-81
2023/09/10 04:28:21;;;;;;;;;;;;;;;20.09;100;101804.1;;;;-80
2023/09/10 04:33:25;;;;;;;;;;;;;;;20.04;100;101808.3;;;;-79
2023/09/10 04:38:20;;;;;;;;;;;;;;;20.02;100;101810.4;;;;-81
2023/09/10 04:43:21;;;;;;;;;;;;;;;19.98;100;101809.9;;;;-80
2023/09/10 04:47:09;;;;;;;46.8;33.6;;;;;;;;;;;;;-81
2023/09/10 04:48:23;;;;;;;;;;;;;;;19.93;100;101813.2;;;;-81
2023/09/10 04:53:22;;;;;;;;;;;;;;;19.91;100;101809.9;;;;-79
2023/09/10 04:58:19;;;;;;;;;;;;;;;19.88;100;101809.9;;;;-80
2023/09/10 05:03:27;;;;;;;;;;;;;;;19.83;100;101813.3;;;;-80
2023/09/10 05:08:23;;;;;;;;;;;;;;;19.81;100;101816;;;;-80
2023/09/10 05:13:30;;;;;;;;;;;;;;;19.78;100;101817.3;;;;-79
2023/09/10 05:17:08;;;;;;;48.8;35.2;;;;;;;;;;;;;-79
2023/09/10 05:18:35;;;;;;;;;;;;;;;19.75;100;101820.9;;;;-80
2023/09/10 05:23:21;;;;;;;;;;;;;;;19.76;100;101825;;;;-79
2023/09/10 05:28:29;;;;;;;;;;;;;;;19.81;100;101828.5;;;;-79
2023/09/10 05:33:21;;;;;;;;;;;;;;;19.84;100;101828.8;;;;-80
2023/09/10 05:38:25;;;;;;;;;;;;;;;19.89;100;101829.5;;;;-79
2023/09/10 05:43:22;;;;;;;;;;;;;;;19.98;100;101829.9;;;;-79
2023/09/10 05:47:16;;;;;;;40.4;30.5;;;;;;;;;;;;;-80
2023/09/10 05:48:21;;;;;;;;;;;;;;;20.05;100;101831.1;;;;-80
2023/09/10 05:53:24;;;;;;;;;;;;;;;20.09;100;101836.3;;;;-79
2023/09/10 05:58:25;;;;;;;;;;;;;;;20.15;100;101837.5;;;;-81
2023/09/10 06:03:19;;;;;;;;;;;;;;;20.39;100;101832.8;;;;-80
2023/09/10 06:08:29;;;;;;;;;;;;;;;20.74;100;101833.6;;;;-80
2023/09/10 06:16:36;;;;;;;;;;;;;;;21.4;96.70703;101844.1;;;;-82
2023/09/10 06:17:14;;;;;;;32.9;25.4;;;;;;;;;;;;;-80
2023/09/10 06:26:38;;;;;;;;;;;;;;;22.02;92.22656;101843.5;;;;-80
2023/09/10 06:31:54;;;;;;;;;;;;;;;22.26;90.3291;101841.6;;;;-80
2023/09/10 06:36:31;;;;;;;;;;;;;;;22.6;88.04883;101855.5;;;;-81
2023/09/10 06:46:33;;;;;;;;;;;;;;;22.93;85.375;101855.9;;;;-79
2023/09/10 06:47:31;;;;;;;26.3;20.6;;;;;;;;;;;;;-81
2023/09/10 06:56:37;;;;;;;;;;;;;;;23.35;82.65527;101852.6;;;;-80
2023/09/10 07:01:37;;;;;;;;;;;;;;;23.49;82.01953;101854.9;;;;-81
2023/09/10 07:06:36;;;;;;;;;;;;;;;23.58;80.68164;101860.4;;;;-81
2023/09/10 07:11:37;;;;;;;;;;;;;;;23.7;80.17676;101862.9;;;;-80
2023/09/10 07:16:31;;;;;;;;;;;;;;;23.87;79.05566;101863.1;;;;-81
2023/09/10 07:17:26;;;;;;;25.4;17.3;;;;;;;;;;;;;-80
2023/09/10 07:21:34;;;;;;;;;;;;;;;23.89;77.92969;101865.4;;;;-83
2023/09/10 07:26:32;;;;;;;;;;;;;;;23.92;78.58496;101870.6;;;;-81
2023/09/10 07:31:40;;;;;;;;;;;;;;;23.94;78.62305;101867.4;;;;-81
2023/09/10 07:41:34;;;;;;;;;;;;;;;24.15;77.16602;101858.3;;;;-79
2023/09/10 07:46:31;;;;;;;;;;;;;;;24.31;76.7334;101863.3;;;;-80
2023/09/10 07:47:37;;;;;;;21.2;16.8;;;;;;;;;;;;;-81
2023/09/10 07:51:37;;;;;;;;;;;;;;;24.29;76.12402;101858.8;;;;-80
2023/09/10 07:56:35;;;;;;;;;;;;;;;24.38;74.99609;101856.6;;;;-81
2023/09/10 08:01:42;;;;;;;;;;;;;;;24.54;75.36523;101861.3;;;;-80
2023/09/10 08:06:35;;;;;;;;;;;;;;;24.67;74.71289;101865.6;;;;-80
2023/09/10 08:11:35;;;;;;;;;;;;;;;24.96;73.01953;101868.9;;;;-82
2023/09/10 08:16:44;;;;;;;;;;;;;;;25.11;72.52832;101868.4;;;;-81
2023/09/10 08:17:30;;;;;;;23.5;16.7;;;;;;;;;;;;;-80
2023/09/10 08:21:51;;;;;;;;;;;;;;;25.32;71.58691;101865.6;;;;-79
2023/09/10 08:26:45;;;;;;;;;;;;;;;25.53;70.5752;101867.3;;;;-79
2023/09/10 08:31:34;;;;;;;;;;;;;;;25.69;69.93555;101865.8;;;;-80
2023/09/10 08:36:37;;;;;;;;;;;;;;;25.92;69.26953;101865.6;;;;-81
2023/09/10 08:41:54;;;;;;;;;;;;;;;26.16;68.13281;101856.8;;;;-79
2023/09/10 08:46:56;;;;;;;;;;;;;;;26.45;67.2207;101857;;;;-81
2023/09/10 08:47:50;;;;;;;22.7;15.8;;;;;;;;;;;;;-81
2023/09/10 08:51:49;;;;;;;;;;;;;;;26.58;67.22656;101853.7;;;;-80
2023/09/10 08:57:08;;;;;;;;;;;;;;;26.75;66.18164;101849.6;;;;-80
2023/09/10 09:01:58;;;;;;;;;;;;;;;26.94;65.88574;101846.4;;;;-80
2023/09/10 09:06:49;;;;;;;;;;;;;;;27.12;64.4248;101847.7;;;;-79
2023/09/10 09:11:53;;;;;;;;;;;;;;;;;;;;;
2023/09/10 09:16:59;;;;;;;;;;;;;;;27.3;64.17285;101844.3;;;;-81
2023/09/10 09:17:43;;;;;;;23.4;17.5;;;;;;;;;;;;;-80
2023/09/10 09:21:45;;;;;;;;;;;;;;;27.72;62.97168;101842.4;;;;-80
2023/09/10 09:26:48;;;;;;;;;;;;;;;27.72;61.79199;101845.2;;;;-80
2023/09/10 09:31:45;;;;;;;;;;;;;;;27.94;61.69434;101838.9;;;;-79
2023/09/10 09:36:39;;;;;;;;;;;;;;;28.09;60.58105;101834.1;;;;-81
2023/09/10 09:41:32;;;;;;;;;;;;;;;28.39;59.3457;101835.4;;;;-80
2023/09/10 09:46:40;;;;;;;;;;;;;;;28.57;57.53516;101835.2;;;;-80
2023/09/10 09:47:49;;;;;;;27.3;18.6;;;;;;;;;;;;;-79
2023/09/10 09:51:32;;;;;;;;;;;;;;;28.58;57.53809;101833.3;;;;-79
2023/09/10 09:56:32;;;;;;;;;;;;;;;28.75;57.12891;101822.5;;;;-80
2023/09/10 10:01:31;;;;;;;;;;;;;;;28.96;55.50684;101822.3;;;;-81
2023/09/10 10:06:32;;;;;;;;;;;;;;;29;55.73145;101816.4;;;;-81
2023/09/10 10:11:41;;;;;;;;;;;;;;;29.14;55.19043;101815.9;;;;-80
2023/09/10 10:16:33;;;;;;;;;;;;;;;29.41;54.65332;101805;;;;-81
2023/09/10 10:17:51;;;;;;;23.6;16.8;;;;;;;;;;;;;-79
2023/09/10 10:21:35;;;;;;;;;;;;;;;29.7;53.36133;101805.8;;;;-81
2023/09/10 10:26:32;;;;;;;;;;;;;;;29.59;53.56934;101802.4;;;;-80
2023/09/10 10:31:36;;;;;;;;;;;;;;;29.74;53.64453;101799;;;;-79
2023/09/10 10:36:41;;;;;;;;;;;;;;;29.79;53.44141;101800.1;;;;-78
2023/09/10 10:41:42;;;;;;;;;;;;;;;29.7;53.74414;101796.1;;;;-79
2023/09/10 10:46:32;;;;;;;;;;;;;;;29.91;54.1084;101784.9;;;;-80
2023/09/10 10:47:54;;;;;;;20.1;14.7;;;;;;;;;;;;;-80
2023/09/10 10:51:32;;;;;;;;;;;;;;;30.24;52.8877;101788;;;;-81
2023/09/10 10:56:32;;;;;;;;;;;;;;;30.02;53.29395;101781.4;;;;-80
2023/09/10 11:01:44;;;;;;;;;;;;;;;30.25;52.93555;101785.8;;;;-80
2023/09/10 11:06:33;;;;;;;;;;;;;;;30.73;52.15039;101785.6;;;;-81
2023/09/10 11:11:41;;;;;;;;;;;;;;;30.87;51.40723;101785.1;;;;-81
2023/09/10 11:16:32;;;;;;;;;;;;;;;30.9;51.00195;101778.8;;;;-83
2023/09/10 11:18:16;;;;;;;21.3;15;;;;;;;;;;;;;-82
2023/09/10 11:21:44;;;;;;;;;;;;;;;31.01;50.76855;101767.7;;;;-82
2023/09/10 11:26:37;;;;;;;;;;;;;;;31.24;50.91016;101771.2;;;;-81
2023/09/10 11:31:56;;;;;;;;;;;;;;;31.5;49.98047;101774.1;;;;-80
2023/09/10 11:36:31;;;;;;;;;;;;;;;31.73;50.14551;101771.3;;;;-80
2023/09/10 11:41:42;;;;;;;;;;;;;;;31.6;50.16699;101774;;;;-81
2023/09/10 11:46:36;;;;;;;;;;;;;;;31.55;49.1543;101765.1;;;;-79
2023/09/10 11:48:09;;;;;;;19.3;12.4;;;;;;;;;;;;;-79
2023/09/10 11:51:31;;;;;;;;;;;;;;;31.65;48.48633;101767.8;;;;-81
2023/09/10 11:56:35;;;;;;;;;;;;;;;31.58;48.62012;101768.1;;;;-81
2023/09/10 12:01:35;;;;;;;;;;;;;;;31.83;48.9502;101759.1;;;;-81
2023/09/10 12:06:34;;;;;;;;;;;;;;;32.11;47.7959;101759;;;;-80
2023/09/10 12:11:42;;;;;;;;;;;;;;;32.07;47.8623;101760.6;;;;-80
2023/09/10 12:16:51;;;;;;;;;;;;;;;32.11;47.12695;101761.4;;;;-81
2023/09/10 12:18:17;;;;;;;17;9.1;;;;;;;;;;;;;-79
2023/09/10 12:21:31;;;;;;;;;;;;;;;31.99;46.16504;101761.8;;;;-81
2023/09/10 12:26:31;;;;;;;;;;;;;;;32.29;46.59375;101753;;;;-81
2023/09/10 12:31:32;;;;;;;;;;;;;;;32.5;46.38184;101743.4;;;;-80
2023/09/10 12:36:41;;;;;;;;;;;;;;;32.68;44.31934;101740.1;;;;-82
2023/09/10 12:41:32;;;;;;;;;;;;;;;32.78;43.97559;101736.8;;;;-80
2023/09/10 12:46:37;;;;;;;;;;;;;;;32.65;44.33887;101733.4;;;;-80
2023/09/10 12:48:22;;;;;;;16.4;7.4;;;;;;;;;;;;;-81
2023/09/10 12:51:31;;;;;;;;;;;;;;;32.99;43.94922;101737.5;;;;-81
2023/09/10 12:56:32;;;;;;;;;;;;;;;33.3;43.53125;101725.3;;;;-81
2023/09/10 13:01:31;;;;;;;;;;;;;;;33.33;41.88477;101721;;;;-81
2023/09/10 13:06:30;;;;;;;;;;;;;;;33.67;42.36426;101716.2;;;;-79
2023/09/10 13:11:30;;;;;;;;;;;;;;;33.63;42.2666;101720.7;;;;-80
2023/09/10 13:16:31;;;;;;;;;;;;;;;33.8;38.18848;101714.2;;;;-80
2023/09/10 13:18:28;;;;;;;13.4;5.4;;;;;;;;;;;;;-81
2023/09/10 13:21:32;;;;;;;;;;;;;;;33.72;39.00781;101710.4;;;;-79
2023/09/10 13:26:31;;;;;;;;;;;;;;;33.89;38.44434;101706.2;;;;-81
2023/09/10 13:31:32;;;;;;;;;;;;;;;33.85;38.67676;101702.2;;;;-80
2023/09/10 13:36:31;;;;;;;;;;;;;;;33.83;39.71289;101702.4;;;;-79
2023/09/10 13:41:33;;;;;;;;;;;;;;;33.88;39.49219;101700;;;;-82
2023/09/10 13:46:31;;;;;;;;;;;;;;;34.06;38.57617;101692.3;;;;-80
2023/09/10 13:48:33;;;;;;;13.8;6;;;;;;;;;;;;;-81
2023/09/10 13:51:45;;;;;;;;;;;;;;;34.21;38.23438;101685.4;;;;-81
2023/09/10 13:56:36;;;;;;;;;;;;;;;34.03;38.37207;101682.6;;;;-81
2023/09/10 14:01:43;;;;;;;;;;;;;;;33.97;39.28906;101684.6;;;;-81
2023/09/10 14:06:37;;;;;;;;;;;;;;;34.18;39.56543;101680.6;;;;-81
2023/09/10 14:11:37;;;;;;;;;;;;;;;34.64;37.98633;101680.7;;;;-80
2023/09/10 14:16:32;;;;;;;;;;;;;;;34.38;37.4209;101679.5;;;;-80
2023/09/10 14:18:37;;;;;;;15.5;5.9;;;;;;;;;;;;;-79
2023/09/10 14:21:32;;;;;;;;;;;;;;;34.54;37.59961;101676.7;;;;-82
2023/09/10 14:26:37;;;;;;;;;;;;;;;34.87;37.04688;101682.3;;;;-81
2023/09/10 14:31:31;;;;;;;;;;;;;;;34.9;34.78711;101673.9;;;;-80
2023/09/10 14:36:35;;;;;;;;;;;;;;;34.76;34.63477;101669.7;;;;-80
2023/09/10 14:41:31;;;;;;;;;;;;;;;34.97;34.66211;101664.4;;;;-81
2023/09/10 14:46:34;;;;;;;;;;;;;;;34.92;33.78125;101659.8;;;;-81
2023/09/10 14:48:45;;;;;;;15.5;3.1;;;;;;;;;;;;;-81
2023/09/10 14:51:39;;;;;;;;;;;;;;;34.76;33.39063;101656.6;;;;-82
2023/09/10 14:56:43;;;;;;;;;;;;;;;34.63;35.2168;101650.2;;;;-81
2023/09/10 15:01:34;;;;;;;;;;;;;;;34.48;34.15137;101641.7;;;;-81
2023/09/10 15:06:36;;;;;;;;;;;;;;;34.28;36.1123;101641.7;;;;-81
2023/09/10 15:11:31;;;;;;;;;;;;;;;34.38;35.50488;101634.8;;;;-80
2023/09/10 15:16:32;;;;;;;;;;;;;;;34.38;35.63477;101638.5;;;;-79
2023/09/10 15:19:03;;;;;;;12.7;3.3;;;;;;;;;;;;;-82
2023/09/10 15:21:45;;;;;;;;;;;;;;;34.34;36.03418;101639.5;;;;-80
2023/09/10 15:26:41;;;;;;;;;;;;;;;34.28;35.79297;101636.6;;;;-81
2023/09/10 15:31:37;;;;;;;;;;;;;;;34.03;36.63574;101625.8;;;;-81
2023/09/10 15:36:30;;;;;;;;;;;;;;;34.16;35.91309;101621.8;;;;-82
2023/09/10 15:41:45;;;;;;;;;;;;;;;34.15;36.10254;101616.1;;;;-81
2023/09/10 15:46:31;;;;;;;;;;;;;;;34.14;36.36133;101614;;;;-81
2023/09/10 15:48:57;;;;;;;10.4;3;;;;;;;;;;;;;-82
2023/09/10 15:51:32;;;;;;;;;;;;;;;34.01;35.22852;101604.8;;;;-82
2023/09/10 15:56:34;;;;;;;;;;;;;;;34.04;36.95605;101604.7;;;;-82
2023/09/10 16:01:35;;;;;;;;;;;;;;;34.19;35.90527;101601;;;;-82
2023/09/10 16:06:34;;;;;;;;;;;;;;;34.2;34.91113;101600.8;;;;-80
2023/09/10 16:11:30;;;;;;;;;;;;;;;34.2;35.1123;101598;;;;-80
2023/09/10 16:16:33;;;;;;;;;;;;;;;34.23;34.98438;101605.3;;;;-81
2023/09/10 16:19:08;;;;;;;11.6;3.5;;;;;;;;;;;;;-80
2023/09/10 16:21:36;;;;;;;;;;;;;;;34.18;34.80371;101600.7;;;;-81
2023/09/10 16:26:35;;;;;;;;;;;;;;;34.02;36.55273;101598.8;;;;-83
2023/09/10 16:31:31;;;;;;;;;;;;;;;33.87;35.85547;101593.3;;;;-80
2023/09/10 16:36:33;;;;;;;;;;;;;;;33.6;35.69238;101591.4;;;;-82
2023/09/10 16:41:31;;;;;;;;;;;;;;;33.67;36.27734;101592.1;;;;-80
2023/09/10 16:46:31;;;;;;;;;;;;;;;33.7;35.49902;101590.8;;;;-82
2023/09/10 16:49:12;;;;;;;10.5;3.7;;;;;;;;;;;;;-81
2023/09/10 16:51:36;;;;;;;;;;;;;;;33.6;37.08594;101586;;;;-81
2023/09/10 17:01:30;;;;;;;;;;;;;;;33.3;39.125;101588.1;;;;-81
2023/09/10 17:06:32;;;;;;;;;;;;;;;32.9;42.26953;101588.3;;;;-81
2023/09/10 17:11:31;;;;;;;;;;;;;;;32.41;44.09277;101596.6;;;;-83
2023/09/10 17:16:31;;;;;;;;;;;;;;;32.24;44.66309;101596.4;;;;-83
2023/09/10 17:19:15;;;;;;;15.9;6.1;;;;;;;;;;;;;-83
2023/09/10 17:21:34;;;;;;;;;;;;;;;32.07;45.30469;101587;;;;-81
2023/09/10 17:26:31;;;;;;;;;;;;;;;31.87;46.09375;101590.2;;;;-82
2023/09/10 17:31:36;;;;;;;;;;;;;;;31.69;46.99121;101588.6;;;;-83
2023/09/10 17:36:32;;;;;;;;;;;;;;;31.33;47.46875;101591.6;;;;-82
2023/09/10 17:41:56;;;;;;;;;;;;;;;31.16;48.31641;101588.7;;;;-83
2023/09/10 17:49:24;;;;;;;10.8;3.9;;;;;;;;;;;;;-81
2023/09/10 17:51:08;;;;;;;;;;;;;;;30.79;46.56934;101591.4;;;;-83
2023/09/10 17:56:02;;;;;;;;;;;;;;;30.56;46.89746;101589.1;;;;-82
2023/09/10 18:01:02;;;;;;;;;;;;;;;30.37;47.36816;101591.2;;;;-82
2023/09/10 18:06:00;;;;;;;;;;;;;;;30.14;49.3291;101589.6;;;;-82
2023/09/10 18:11:03;;;;;;;;;;;;;;;29.93;51.37012;101594.1;;;;-82
2023/09/10 18:16:00;;;;;;;;;;;;;;;29.75;51.94531;101594.5;;;;-82
2023/09/10 18:19:27;;;;;;;13.2;6;;;;;;;;;;;;;-80
2023/09/10 18:21:03;;;;;;;;;;;;;;;29.61;52.76855;101593.5;;;;-83
2023/09/10 18:26:11;;;;;;;;;;;;;;;29.4;53.87305;101594.2;;;;-82
2023/09/10 18:31:11;;;;;;;;;;;;;;;29.17;54.91504;101594.4;;;;-81
2023/09/10 18:36:01;;;;;;;;;;;;;;;29;53.41895;101593.8;;;;-82
2023/09/10 18:41:04;;;;;;;;;;;;;;;28.83;56.05957;101588.9;;;;-80
2023/09/10 18:46:02;;;;;;;;;;;;;;;28.68;58.21094;101585.8;;;;-81
2023/09/10 18:49:33;;;;;;;16.2;8.1;;;;;;;;;;;;;-82
2023/09/10 18:51:01;;;;;;;;;;;;;;;28.51;59.12891;101590.8;;;;-82
2023/09/10 18:56:00;;;;;;;;;;;;;;;28.36;59.21387;101594.9;;;;-81
2023/09/10 19:01:02;;;;;;;;;;;;;;;28.21;60.2832;101588.7;;;;-82
2023/09/10 19:06:03;;;;;;;;;;;;;;;28.07;60.61328;101597.3;;;;-81
2023/09/10 19:11:01;;;;;;;;;;;;;;;27.96;60.05273;101595.5;;;;-82
2023/09/10 19:16:00;;;;;;;;;;;;;;;27.79;62.09082;101597.8;;;;-83
2023/09/10 19:19:38;;;;;;;14.6;8;;;;;;;;;;;;;-82
2023/09/10 19:21:01;;;;;;;;;;;;;;;27.56;63.04199;101591.2;;;;-79
2023/09/10 19:26:04;;;;;;;;;;;;;;;27.39;63.73633;101591.7;;;;-83
2023/09/10 19:31:00;;;;;;;;;;;;;;;27.23;63.82715;101594.8;;;;-82
2023/09/10 19:36:07;;;;;;;;;;;;;;;27.11;65.58789;101596.5;;;;-81
2023/09/10 19:41:00;;;;;;;;;;;;;;;26.97;66.90625;101595.6;;;;-82
2023/09/10 19:46:03;;;;;;;;;;;;;;;26.84;67.47363;101596.8;;;;-82
2023/09/10 19:49:44;;;;;;;18.1;8.5;;;;;;;;;;;;;-80
2023/09/10 19:51:06;;;;;;;;;;;;;;;26.76;67.4502;101598.1;;;;-81
2023/09/10 19:56:12;;;;;;;;;;;;;;;26.57;68.21777;101595.5;;;;-82
2023/09/10 20:01:14;;;;;;;;;;;;;;;26.41;68.87207;101596.2;;;;-80
2023/09/10 20:06:00;;;;;;;;;;;;;;;26.26;69.88379;101597.3;;;;-81
2023/09/10 20:11:02;;;;;;;;;;;;;;;26.15;70.65039;101596.5;;;;-81
2023/09/10 20:16:13;;;;;;;;;;;;;;;26.04;71.40332;101593.5;;;;-82
2023/09/10 20:19:55;;;;;;;21.4;10.3;;;;;;;;;;;;;-82
2023/09/10 20:21:06;;;;;;;;;;;;;;;25.93;72.25781;101595.7;;;;-82
2023/09/10 20:26:04;;;;;;;;;;;;;;;25.84;73.26465;101593.5;;;;-82
2023/09/10 20:31:00;;;;;;;;;;;;;;;25.73;74.1875;101587.9;;;;-82
2023/09/10 20:36:02;;;;;;;;;;;;;;;25.6;74.62695;101574.7;;;;-81
2023/09/10 20:41:00;;;;;;;;;;;;;;;25.61;74.99414;101580.6;;;;-82
2023/09/10 20:46:00;;;;;;;;;;;;;;;25.53;75.67969;101578.6;;;;-81
2023/09/10 20:49:52;;;;;;;23.8;12.4;;;;;;;;;;;;;-80
2023/09/10 20:51:07;;;;;;;;;;;;;;;25.49;76.33887;101572.8;;;;-80
2023/09/10 20:56:00;;;;;;;;;;;;;;;25.36;77.64453;101571.4;;;;-82
2023/09/10 21:01:04;;;;;;;;;;;;;;;25.26;78.69336;101569.4;;;;-81
2023/09/10 21:06:00;;;;;;;;;;;;;;;25.18;79.69727;101569.7;;;;-82
2023/09/10 21:11:00;;;;;;;;;;;;;;;25.09;80.12793;101566;;;;-81
2023/09/10 21:16:00;;;;;;;;;;;;;;;24.99;81.16113;101560.8;;;;-83
2023/09/10 21:19:58;;;;;;;29.3;13.8;;;;;;;;;;;;;-83
2023/09/10 21:21:03;;;;;;;;;;;;;;;24.91;81.50098;101556.9;;;;-85
2023/09/10 21:26:03;;;;;;;;;;;;;;;24.84;81.68359;101556.4;;;;-82
2023/09/10 21:31:04;;;;;;;;;;;;;;;24.8;81.86035;101557;;;;-80
2023/09/10 21:36:00;;;;;;;;;;;;;;;24.78;81.50098;101547.5;;;;-81
2023/09/10 21:41:02;;;;;;;;;;;;;;;24.77;81.41895;101544.1;;;;-81
2023/09/10 21:46:09;;;;;;;;;;;;;;;24.73;81.38867;101529.5;;;;-81
2023/09/10 21:50:03;;;;;;;23.8;13.1;;;;;;;;;;;;;-80
2023/09/10 21:51:03;;;;;;;;;;;;;;;24.65;82.04883;101525;;;;-80
2023/09/10 21:56:16;;;;;;;;;;;;;;;24.61;81.9375;101527;;;;-86
2023/09/10 22:01:03;;;;;;;;;;;;;;;24.51;82.7666;101525.6;;;;-85
2023/09/10 22:06:09;;;;;;;;;;;;;;;24.45;83.19922;101523.8;;;;-86
2023/09/10 22:11:14;;;;;;;;;;;;;;;24.38;83.85938;101521;;;;-84
2023/09/10 22:16:08;;;;;;;;;;;;;;;24.31;84.2334;101518.1;;;;-85
2023/09/10 22:20:28;;;;;;;21.5;13;;;;;;;;;;;;;-86
2023/09/10 22:21:03;;;;;;;;;;;;;;;24.21;85.32031;101516.6;;;;-85
2023/09/10 22:26:10;;;;;;;;;;;;;;;24.14;85.81934;101512.7;;;;-85
2023/09/10 22:31:13;;;;;;;;;;;;;;;24.06;86.1582;101507.4;;;;-86
2023/09/10 22:36:15;;;;;;;;;;;;;;;23.99;86.33789;101507.5;;;;-86
2023/09/10 22:41:16;;;;;;;;;;;;;;;23.95;86.66113;101505.1;;;;-85
2023/09/10 22:50:43;;;;;;;22.5;13.1;;;;;;;;;;;;;-87
2023/09/10 22:56:19;;;;;;;;;;;;;;;23.79;88.64551;101500.1;;;;-86
2023/09/10 23:01:07;;;;;;;;;;;;;;;23.74;89.46289;101490.5;;;;-85
2023/09/10 23:06:11;;;;;;;;;;;;;;;23.67;90.05273;101490.9;;;;-85
2023/09/10 23:11:08;;;;;;;;;;;;;;;23.6;90.32227;101487.6;;;;-86
2023/09/10 23:20:30;;;;;;;24;14;;;;;;;;;;;;;-86
2023/09/10 23:21:20;;;;;;;;;;;;;;;23.48;91.49121;101482.8;;;;-84
2023/09/10 23:26:12;;;;;;;;;;;;;;;23.37;91.40137;101466;;;;-86
2023/09/10 23:31:14;;;;;;;;;;;;;;;23.35;92.26074;101466.4;;;;-85
2023/09/10 23:36:05;;;;;;;;;;;;;;;23.29;92.75781;101463.2;;;;-86
2023/09/10 23:41:06;;;;;;;;;;;;;;;23.24;93.29297;101462.3;;;;-85
2023/09/10 23:46:08;;;;;;;;;;;;;;;23.14;93.70313;101454.8;;;;-87
2023/09/10 23:53:18;;;;;;;;;;;;;;;23.15;93.72656;101459.8;;;;-81
2023/09/10 23:58:10;;;;;;;;;;;;;;;23.12;93.82227;101457.4;;;;-83
